createdAt,value
2022-10-19T00:00:05.647Z,3.97
2022-10-19T00:02:31.998Z,4.15
2022-10-19T00:04:58.289Z,4.07
2022-10-19T00:07:24.565Z,4.05
2022-10-19T00:09:50.877Z,4.47
2022-10-19T00:12:17.356Z,4.28
2022-10-19T00:14:43.605Z,5.47
2022-10-19T00:17:09.867Z,4.55
2022-10-19T00:19:36.104Z,4.70
2022-10-19T00:22:02.374Z,4.75
2022-10-19T00:24:28.624Z,4.75
2022-10-19T00:26:54.872Z,4.10
2022-10-19T00:29:21.106Z,4.70
2022-10-19T00:31:49.247Z,3.92
2022-10-19T00:34:15.549Z,4.28
2022-10-19T00:36:41.903Z,4.00
2022-10-19T00:39:11.488Z,3.85
2022-10-19T00:41:38.174Z,4.03
2022-10-19T00:44:13.610Z,3.97
2022-10-19T00:46:41.354Z,3.72
2022-10-19T00:49:11.194Z,3.47
2022-10-19T00:51:39.464Z,3.92
2022-10-19T00:54:06.144Z,3.00
2022-10-19T00:56:33.045Z,3.47
2022-10-19T00:58:59.404Z,4.47
2022-10-19T01:01:26.869Z,4.70
2022-10-19T01:03:53.140Z,3.80
2022-10-19T01:06:19.750Z,4.93
2022-10-19T01:08:46.263Z,4.50
2022-10-19T01:11:23.204Z,5.07
2022-10-19T01:13:49.405Z,4.10
2022-10-19T01:16:20.145Z,4.57
2022-10-19T01:18:54.120Z,4.30
2022-10-19T01:21:22.242Z,4.47
2022-10-19T01:24:07.500Z,4.28
2022-10-19T01:26:41.610Z,4.50
2022-10-19T01:29:26.294Z,3.65
2022-10-19T01:32:04.542Z,4.35
2022-10-19T01:34:42.785Z,4.20
2022-10-19T01:37:28.059Z,3.70
2022-10-19T01:40:02.175Z,3.80
2022-10-19T01:42:44.679Z,4.00
2022-10-19T01:45:16.582Z,4.22
2022-10-19T01:47:47.019Z,3.95
2022-10-19T01:50:16.044Z,3.85
2022-10-19T01:52:42.810Z,3.45
2022-10-19T01:55:11.045Z,3.03
2022-10-19T01:57:39.627Z,3.17
2022-10-19T02:00:09.405Z,3.00
2022-10-19T02:02:37.127Z,2.90
2022-10-19T02:05:04.670Z,2.78
2022-10-19T02:07:31.398Z,2.90
2022-10-19T02:09:57.691Z,2.92
2022-10-19T02:12:24.881Z,2.95
2022-10-19T02:14:53.589Z,3.33
2022-10-19T02:17:22.236Z,3.50
2022-10-19T02:19:48.549Z,3.40
2022-10-19T02:22:14.809Z,3.20
2022-10-19T02:24:41.107Z,3.58
2022-10-19T02:27:08.065Z,3.38
2022-10-19T02:29:34.891Z,3.25
2022-10-19T02:32:01.696Z,3.40
2022-10-19T02:34:28.167Z,3.40
2022-10-19T02:36:54.892Z,3.28
2022-10-19T02:39:21.423Z,3.50
2022-10-19T02:42:00.454Z,3.42
2022-10-19T02:44:30.121Z,3.08
2022-10-19T02:47:06.469Z,3.58
2022-10-19T02:49:34.126Z,3.38
2022-10-19T02:52:01.667Z,3.50
2022-10-19T02:54:27.986Z,3.20
2022-10-19T02:56:54.382Z,3.22
2022-10-19T02:59:20.636Z,3.13
2022-10-19T03:01:46.921Z,3.20
2022-10-19T03:04:13.249Z,3.50
2022-10-19T03:06:39.521Z,3.58
2022-10-19T03:09:05.984Z,3.70
2022-10-19T03:11:32.233Z,3.95
2022-10-19T03:13:58.479Z,3.45
2022-10-19T03:16:24.776Z,3.35
2022-10-19T03:18:51.488Z,3.05
2022-10-19T03:21:18.279Z,3.40
2022-10-19T03:23:44.613Z,2.85
2022-10-19T03:26:13.259Z,3.13
2022-10-19T03:28:39.631Z,3.05
2022-10-19T03:31:06.169Z,2.55
2022-10-19T03:33:32.655Z,2.80
2022-10-19T03:36:15.679Z,2.97
2022-10-19T03:38:42.073Z,2.70
2022-10-19T03:41:08.813Z,3.13
2022-10-19T03:43:35.455Z,3.45
2022-10-19T03:46:01.706Z,3.63
2022-10-19T03:48:28.083Z,3.67
2022-10-19T03:51:05.343Z,3.45
2022-10-19T03:53:33.167Z,4.32
2022-10-19T03:56:11.067Z,3.60
2022-10-19T03:58:38.237Z,3.72
2022-10-19T04:01:18.198Z,4.28
2022-10-19T04:03:44.851Z,3.85
2022-10-19T04:06:14.003Z,4.25
2022-10-19T04:08:42.357Z,4.05
2022-10-19T04:11:10.829Z,3.88
2022-10-19T04:13:37.106Z,3.85
2022-10-19T04:16:03.525Z,3.67
2022-10-19T04:18:29.757Z,3.78
2022-10-19T04:20:56.788Z,3.58
2022-10-19T04:23:23.297Z,3.50
2022-10-19T04:25:49.711Z,3.67
2022-10-19T04:28:15.932Z,3.20
2022-10-19T04:30:42.191Z,3.50
2022-10-19T04:33:08.433Z,3.70
2022-10-19T04:35:34.677Z,3.70
2022-10-19T04:38:00.930Z,3.67
2022-10-19T04:40:27.176Z,3.88
2022-10-19T04:42:53.438Z,3.88
2022-10-19T04:45:19.822Z,3.85
2022-10-19T04:47:46.070Z,3.72
2022-10-19T04:50:12.353Z,3.60
2022-10-19T04:52:39.305Z,4.43
2022-10-19T04:55:05.660Z,3.30
2022-10-19T04:57:32.115Z,4.00
2022-10-19T04:59:58.648Z,4.57
2022-10-19T05:02:24.889Z,4.43
2022-10-19T05:04:51.196Z,3.63
2022-10-19T05:07:17.476Z,4.00
2022-10-19T05:09:43.798Z,4.13
2022-10-19T05:12:10.017Z,3.67
2022-10-19T05:14:39.026Z,3.65
2022-10-19T05:17:08.281Z,3.95
2022-10-19T05:19:34.531Z,3.92
2022-10-19T05:22:00.752Z,4.00
2022-10-19T05:24:27.047Z,3.63
2022-10-19T05:26:53.503Z,3.47
2022-10-19T05:29:19.781Z,4.28
2022-10-19T05:31:46.381Z,4.50
2022-10-19T05:34:12.613Z,3.83
2022-10-19T05:36:39.362Z,3.28
2022-10-19T05:39:13.268Z,3.90
2022-10-19T05:41:39.579Z,3.65
2022-10-19T05:44:06.098Z,3.45
2022-10-19T05:46:32.926Z,3.28
2022-10-19T05:48:59.681Z,3.33
2022-10-19T05:51:26.694Z,3.33
2022-10-19T05:53:53.690Z,3.45
2022-10-19T05:56:21.257Z,3.08
2022-10-19T05:58:48.147Z,3.60
2022-10-19T06:01:15.099Z,3.30
2022-10-19T06:03:42.493Z,3.47
2022-10-19T06:06:09.144Z,4.10
2022-10-19T06:08:35.618Z,4.10
2022-10-19T06:11:09.913Z,4.10
2022-10-19T06:13:36.605Z,3.50
2022-10-19T06:16:02.973Z,3.38
2022-10-19T06:18:29.550Z,3.80
2022-10-19T06:20:55.983Z,3.40
2022-10-19T06:23:22.290Z,4.00
2022-10-19T06:25:48.553Z,3.75
2022-10-19T06:28:14.814Z,3.50
2022-10-19T06:30:41.390Z,3.35
2022-10-19T06:33:07.677Z,3.58
2022-10-19T06:35:34.006Z,3.90
2022-10-19T06:38:00.357Z,3.60
2022-10-19T06:40:26.669Z,3.70
2022-10-19T06:42:54.562Z,3.88
2022-10-19T06:45:20.804Z,3.83
2022-10-19T06:50:14.258Z,4.30
2022-10-19T06:52:40.809Z,3.95
2022-10-19T06:55:07.343Z,4.32
2022-10-19T06:57:33.751Z,4.18
2022-10-19T07:00:00.197Z,4.03
2022-10-19T07:02:26.481Z,4.47
2022-10-19T07:04:52.738Z,4.40
2022-10-19T07:07:18.988Z,5.32
2022-10-19T07:09:45.250Z,4.60
2022-10-19T07:12:11.502Z,4.85
2022-10-19T07:14:39.629Z,6.18
2022-10-19T07:17:06.936Z,6.05
2022-10-19T07:19:33.381Z,5.10
2022-10-19T07:21:59.641Z,4.40
2022-10-19T07:24:25.877Z,4.22
2022-10-19T07:26:52.122Z,4.72
2022-10-19T07:29:18.521Z,4.28
2022-10-19T07:31:44.830Z,4.40
2022-10-19T07:34:11.672Z,3.78
2022-10-19T07:36:38.006Z,3.58
2022-10-19T07:39:06.269Z,3.63
2022-10-19T07:41:33.291Z,3.72
2022-10-19T07:43:59.615Z,3.88
2022-10-19T07:46:28.361Z,4.47
2022-10-19T07:48:55.084Z,4.22
2022-10-19T07:51:21.924Z,4.40
2022-10-19T07:53:48.245Z,4.57
2022-10-19T07:56:18.953Z,4.30
2022-10-19T07:58:45.539Z,4.70
2022-10-19T08:01:19.474Z,3.90
2022-10-19T08:06:32.391Z,5.05
2022-10-19T08:08:58.853Z,4.72
2022-10-19T08:11:26.562Z,4.80
2022-10-19T08:13:53.252Z,4.63
2022-10-19T08:16:25.641Z,4.97
2022-10-19T08:18:52.734Z,4.57
2022-10-19T08:21:19.140Z,4.63
2022-10-19T08:23:45.409Z,5.40
2022-10-19T08:26:11.894Z,5.43
2022-10-19T08:28:38.225Z,6.72
2022-10-19T08:31:15.545Z,6.20
2022-10-19T08:33:41.857Z,7.57
2022-10-19T08:36:08.900Z,6.18
2022-10-19T08:38:35.947Z,7.72
2022-10-19T08:41:14.513Z,7.03
2022-10-19T08:43:46.564Z,7.45
2022-10-19T08:46:14.061Z,6.05
2022-10-19T08:48:42.970Z,6.93
2022-10-19T08:51:11.469Z,6.47
2022-10-19T08:53:45.708Z,6.45
2022-10-19T08:56:38.996Z,6.13
2022-10-19T08:59:30.485Z,5.78
2022-10-19T09:02:04.288Z,5.85
2022-10-19T09:04:30.532Z,5.10
2022-10-19T09:07:15.130Z,4.65
2022-10-19T09:09:43.960Z,4.57
2022-10-19T09:12:12.570Z,4.68
2022-10-19T09:14:44.118Z,4.72
2022-10-19T09:17:13.433Z,3.97
2022-10-19T09:19:39.765Z,4.28
2022-10-19T09:22:07.981Z,3.35
2022-10-19T09:24:42.657Z,3.90
2022-10-19T09:27:15.853Z,3.92
2022-10-19T09:29:44.246Z,3.72
2022-10-19T09:32:13.461Z,3.70
2022-10-19T09:34:44.593Z,3.70
2022-10-19T09:37:18.804Z,3.38
2022-10-19T09:39:53.929Z,3.22
2022-10-19T09:42:24.289Z,3.35
2022-10-19T09:44:51.226Z,2.25
2022-10-19T09:47:17.495Z,2.53
2022-10-19T09:49:45.325Z,2.55
2022-10-19T09:52:30.457Z,2.17
2022-10-19T09:55:01.826Z,2.33
2022-10-19T09:57:28.097Z,1.92
2022-10-19T09:59:54.799Z,1.70
2022-10-19T10:02:22.161Z,1.92
2022-10-19T10:04:55.733Z,1.92
2022-10-19T10:07:25.234Z,1.38
2022-10-19T10:09:52.425Z,1.52
2022-10-19T10:12:18.707Z,1.60
2022-10-19T10:14:45.337Z,1.25
2022-10-19T10:17:16.652Z,1.42
2022-10-19T10:20:09.438Z,1.30
2022-10-19T10:22:36.837Z,1.40
2022-10-19T10:25:12.050Z,0.90
2022-10-19T10:27:38.794Z,0.98
2022-10-19T10:30:07.053Z,0.90
2022-10-19T10:32:37.003Z,1.02
2022-10-19T10:35:05.573Z,0.90
2022-10-19T10:37:38.021Z,1.10
2022-10-19T10:40:07.956Z,1.45
2022-10-19T10:42:41.583Z,1.30
2022-10-19T10:45:28.266Z,1.15
2022-10-19T10:47:54.667Z,1.10
2022-10-19T10:50:25.874Z,1.20
2022-10-19T10:52:59.789Z,1.20
2022-10-19T10:55:26.600Z,1.17
2022-10-19T10:57:58.676Z,1.33
2022-10-19T11:00:25.266Z,1.25
2022-10-19T11:02:51.984Z,1.13
2022-10-19T11:05:29.018Z,1.33
2022-10-19T11:08:14.295Z,1.08
2022-10-19T11:10:46.749Z,1.60
2022-10-19T11:13:16.516Z,2.05
2022-10-19T11:16:03.012Z,1.27
2022-10-19T11:18:35.865Z,1.15
2022-10-19T11:21:05.967Z,1.30
2022-10-19T11:23:50.725Z,1.30
2022-10-19T11:26:35.375Z,1.40
2022-10-19T11:29:20.749Z,1.23
2022-10-19T11:31:48.230Z,1.40
2022-10-19T11:34:34.174Z,1.08
2022-10-19T11:37:03.653Z,1.30
2022-10-19T11:39:48.312Z,1.13
2022-10-19T11:42:14.564Z,1.30
2022-10-19T11:44:40.777Z,1.45
2022-10-19T11:47:10.021Z,1.30
2022-10-19T11:49:39.330Z,1.15
2022-10-19T11:52:26.882Z,1.00
2022-10-19T11:55:05.310Z,1.48
2022-10-19T11:57:34.851Z,1.50
2022-10-19T12:00:14.475Z,1.40
2022-10-19T12:02:41.754Z,1.23
2022-10-19T12:05:13.457Z,1.40
2022-10-19T12:07:59.867Z,1.50
2022-10-19T12:10:38.379Z,1.70
2022-10-19T12:13:05.934Z,1.73
2022-10-19T12:15:35.591Z,1.40
2022-10-19T12:18:06.951Z,1.25
2022-10-19T12:20:52.935Z,1.35
2022-10-19T12:23:42.148Z,1.35
2022-10-19T12:26:12.512Z,1.40
2022-10-19T12:28:41.652Z,1.42
2022-10-19T12:31:09.328Z,1.27
2022-10-19T12:33:46.400Z,1.30
2022-10-19T12:36:19.080Z,1.50
2022-10-19T12:39:01.003Z,2.20
2022-10-19T12:41:30.454Z,1.30
2022-10-19T12:44:02.178Z,1.15
2022-10-19T12:46:28.517Z,1.60
2022-10-19T12:49:26.461Z,1.30
2022-10-19T12:51:55.893Z,1.63
2022-10-19T12:54:24.188Z,1.30
2022-10-19T12:56:52.001Z,1.42
2022-10-19T12:59:30.909Z,1.20
2022-10-19T13:01:58.766Z,1.73
2022-10-19T13:04:29.984Z,1.67
2022-10-19T13:06:56.215Z,1.83
2022-10-19T13:09:42.358Z,1.60
2022-10-19T13:12:17.828Z,1.80
2022-10-19T13:14:51.787Z,2.15
2022-10-19T13:17:34.398Z,2.20
2022-10-19T13:20:13.174Z,1.60
2022-10-19T13:22:39.801Z,1.50
2022-10-19T13:25:18.795Z,1.52
2022-10-19T13:27:46.373Z,1.70
2022-10-19T13:30:31.130Z,1.55
2022-10-19T13:32:57.463Z,1.60
2022-10-19T13:35:23.714Z,1.30
2022-10-19T13:38:09.108Z,1.40
2022-10-19T13:40:41.356Z,1.30
2022-10-19T13:43:17.187Z,1.40
2022-10-19T13:45:44.751Z,1.60
2022-10-19T13:48:17.355Z,1.10
2022-10-19T13:50:46.262Z,1.48
2022-10-19T13:53:19.849Z,1.10
2022-10-19T13:55:50.964Z,1.50
2022-10-19T13:58:32.280Z,1.23
2022-10-19T14:01:25.907Z,1.50
2022-10-19T14:03:58.284Z,1.17
2022-10-19T14:06:29.925Z,1.00
2022-10-19T14:09:15.213Z,1.05
2022-10-19T14:11:43.072Z,1.20
2022-10-19T14:14:09.293Z,1.00
2022-10-19T14:16:44.629Z,1.30
2022-10-19T14:19:13.579Z,1.17
2022-10-19T14:21:39.981Z,1.17
2022-10-19T14:24:27.574Z,1.20
2022-10-19T14:26:54.174Z,1.10
2022-10-19T14:29:20.579Z,1.08
2022-10-19T14:31:46.839Z,1.00
2022-10-19T14:34:13.993Z,1.85
2022-10-19T14:36:44.133Z,1.05
2022-10-19T14:39:22.316Z,1.02
2022-10-19T14:41:52.961Z,1.25
2022-10-19T14:46:47.511Z,1.17
2022-10-19T14:49:13.901Z,1.17
2022-10-19T14:51:46.230Z,1.30
2022-10-19T14:54:31.337Z,0.90
2022-10-19T14:56:57.551Z,1.30
2022-10-19T14:59:28.684Z,1.30
2022-10-19T15:01:56.666Z,1.77
2022-10-19T15:04:30.722Z,1.10
2022-10-19T15:07:02.225Z,1.33
2022-10-19T15:09:47.894Z,1.10
2022-10-19T15:12:17.460Z,1.20
2022-10-19T15:14:44.163Z,1.45
2022-10-19T15:17:27.753Z,1.35
2022-10-19T15:19:55.998Z,1.20
2022-10-19T15:22:22.283Z,1.23
2022-10-19T15:24:57.712Z,1.20
2022-10-19T15:27:29.855Z,1.10
2022-10-19T15:29:58.910Z,1.00
2022-10-19T15:32:28.098Z,1.45
2022-10-19T15:34:54.362Z,1.10
2022-10-19T15:37:22.483Z,1.50
2022-10-19T15:39:49.779Z,1.35
2022-10-19T15:42:35.232Z,1.67
2022-10-19T15:45:02.188Z,1.77
2022-10-19T15:47:28.496Z,1.38
2022-10-19T15:49:56.509Z,1.38
2022-10-19T15:52:24.050Z,1.33
2022-10-19T15:54:58.057Z,1.52
2022-10-19T15:57:57.525Z,1.42
2022-10-19T16:00:23.976Z,1.90
2022-10-19T16:02:53.261Z,1.50
2022-10-19T16:05:29.447Z,1.42
2022-10-19T16:08:00.296Z,1.70
2022-10-19T16:10:28.948Z,1.58
2022-10-19T16:12:55.232Z,1.50
2022-10-19T16:16:06.836Z,1.80
2022-10-19T16:18:40.631Z,1.70
2022-10-19T16:21:13.796Z,1.85
2022-10-19T16:23:51.924Z,2.20
2022-10-19T16:26:18.984Z,1.63
2022-10-19T16:28:50.134Z,1.85
2022-10-19T16:31:23.907Z,2.15
2022-10-19T16:33:51.367Z,1.90
2022-10-19T16:36:20.427Z,2.08
2022-10-19T16:38:47.169Z,2.95
2022-10-19T16:41:17.847Z,2.35
2022-10-19T16:43:44.246Z,2.28
2022-10-19T16:46:13.489Z,2.80
2022-10-19T16:48:39.948Z,2.90
2022-10-19T16:51:06.650Z,2.60
2022-10-19T16:53:33.477Z,3.40
2022-10-19T16:56:09.441Z,3.35
2022-10-19T16:58:37.143Z,3.95
2022-10-19T17:01:21.952Z,3.15
2022-10-19T17:03:48.613Z,3.08
2022-10-19T17:06:15.450Z,3.00
2022-10-19T17:09:23.344Z,3.33
2022-10-19T17:11:28.867Z,3.13
2022-10-19T17:13:56.767Z,3.20
2022-10-19T17:16:23.692Z,3.13
2022-10-19T17:18:52.296Z,3.15
2022-10-19T17:21:19.917Z,3.20
2022-10-19T17:23:46.443Z,3.05
2022-10-19T17:26:13.362Z,3.42
2022-10-19T17:28:40.080Z,3.78
2022-10-19T17:31:13.524Z,3.35
2022-10-19T17:33:40.213Z,4.05
2022-10-19T17:36:14.117Z,4.20
2022-10-19T17:38:41.087Z,4.72
2022-10-19T17:41:08.642Z,4.40
2022-10-19T17:43:36.424Z,4.97
2022-10-19T17:46:05.089Z,4.43
2022-10-19T17:48:31.904Z,4.93
2022-10-19T17:50:58.769Z,5.10
2022-10-19T17:53:25.218Z,4.47
2022-10-19T17:55:52.232Z,3.90
2022-10-19T17:58:18.591Z,4.47
2022-10-19T18:00:44.918Z,4.10
2022-10-19T18:03:11.205Z,4.03
2022-10-19T18:05:37.524Z,4.60
2022-10-19T18:08:03.765Z,3.95
2022-10-19T18:10:30.239Z,4.13
2022-10-19T18:12:56.510Z,4.40
2022-10-19T18:15:22.796Z,4.65
2022-10-19T18:17:49.083Z,4.32
2022-10-19T18:20:15.442Z,4.65
2022-10-19T18:25:09.196Z,4.20
2022-10-19T18:27:35.674Z,4.05
2022-10-19T18:30:02.230Z,3.78
2022-10-19T18:32:28.712Z,3.90
2022-10-19T18:34:55.087Z,3.50
2022-10-19T18:37:21.308Z,4.10
2022-10-19T18:39:47.619Z,4.10
2022-10-19T18:42:13.872Z,3.83
2022-10-19T18:44:40.137Z,4.07
2022-10-19T18:47:06.426Z,4.43
2022-10-19T18:49:32.724Z,4.25
2022-10-19T18:51:58.959Z,3.90
2022-10-19T18:54:27.831Z,4.50
2022-10-19T18:56:55.049Z,3.53
2022-10-19T18:59:21.375Z,4.03
2022-10-19T19:01:47.658Z,4.25
2022-10-19T19:04:13.895Z,4.10
2022-10-19T19:06:40.235Z,3.83
2022-10-19T19:09:07.822Z,4.13
2022-10-19T19:11:37.001Z,3.47
2022-10-19T19:14:10.002Z,3.40
2022-10-19T19:16:37.838Z,3.60
2022-10-19T19:19:04.806Z,3.40
2022-10-19T19:21:31.598Z,3.67
2022-10-19T19:24:02.475Z,3.85
2022-10-19T19:28:55.166Z,3.88
2022-10-19T19:31:21.440Z,3.80
2022-10-19T19:33:47.964Z,3.70
2022-10-19T19:36:15.420Z,4.07
2022-10-19T19:38:41.922Z,4.85
2022-10-19T19:41:08.960Z,4.93
2022-10-19T19:43:39.199Z,5.35
2022-10-19T19:46:09.180Z,5.10
2022-10-19T19:48:36.113Z,4.50
2022-10-19T19:51:02.342Z,4.03
2022-10-19T19:53:28.570Z,3.75
2022-10-19T19:55:54.793Z,3.80
2022-10-19T19:58:21.029Z,4.07
2022-10-19T20:00:47.450Z,3.88
2022-10-19T20:03:13.720Z,3.92
2022-10-19T20:05:40.300Z,3.85
2022-10-19T20:08:06.797Z,3.72
2022-10-19T20:10:33.202Z,3.60
2022-10-19T20:12:59.511Z,3.58
2022-10-19T20:15:25.756Z,3.58
2022-10-19T20:17:52.008Z,4.10
2022-10-19T20:20:18.332Z,3.97
2022-10-19T20:22:48.203Z,3.92
2022-10-19T20:25:14.750Z,4.15
2022-10-19T20:27:41.056Z,4.00
2022-10-19T20:30:07.655Z,3.92
2022-10-19T20:32:34.249Z,4.05
2022-10-19T20:35:00.683Z,3.92
2022-10-19T20:37:26.948Z,3.33
2022-10-19T20:39:53.187Z,3.75
2022-10-19T20:42:19.451Z,3.72
2022-10-19T20:44:45.685Z,3.80
2022-10-19T20:47:11.978Z,4.22
2022-10-19T20:49:38.291Z,4.40
2022-10-19T20:52:05.357Z,3.88
2022-10-19T20:54:31.716Z,4.28
2022-10-19T20:56:58.205Z,4.32
2022-10-19T20:59:27.516Z,4.22
2022-10-19T21:01:55.426Z,4.05
2022-10-19T21:04:22.473Z,3.92
2022-10-19T21:06:50.081Z,4.28
2022-10-19T21:09:17.596Z,3.85
2022-10-19T21:11:44.584Z,3.60
2022-10-19T21:14:12.742Z,4.00
2022-10-19T21:16:39.322Z,3.97
2022-10-19T21:19:06.732Z,4.35
2022-10-19T21:21:34.397Z,3.90
2022-10-19T21:24:06.254Z,4.07
2022-10-19T21:26:33.301Z,4.30
2022-10-19T21:28:59.529Z,3.55
2022-10-19T21:31:26.515Z,3.95
2022-10-19T21:33:53.188Z,4.35
2022-10-19T21:36:20.974Z,4.00
2022-10-19T21:38:47.818Z,4.50
2022-10-19T21:41:15.653Z,4.18
2022-10-19T21:43:42.280Z,4.30
2022-10-19T21:46:11.247Z,4.03
2022-10-19T21:48:37.666Z,4.15
2022-10-19T21:51:12.839Z,4.22
2022-10-19T21:53:39.062Z,4.50
2022-10-19T21:56:05.480Z,4.50
2022-10-19T21:58:31.730Z,4.30
2022-10-19T22:01:03.535Z,5.03
2022-10-19T22:03:29.822Z,5.18
2022-10-19T22:05:56.081Z,4.95
2022-10-19T22:08:22.339Z,4.65
2022-10-19T22:10:48.584Z,4.43
2022-10-19T22:13:14.797Z,5.38
2022-10-19T22:15:41.485Z,4.22
2022-10-19T22:18:08.277Z,4.20
2022-10-19T22:20:36.130Z,4.35
2022-10-19T22:23:02.954Z,4.60
2022-10-19T22:25:32.955Z,4.72
2022-10-19T22:27:59.217Z,4.07
2022-10-19T22:30:25.604Z,3.83
2022-10-19T22:32:51.864Z,3.88
2022-10-19T22:35:18.139Z,4.50
2022-10-19T22:37:44.422Z,4.10
2022-10-19T22:40:10.963Z,4.20
2022-10-19T22:42:37.684Z,4.45
2022-10-19T22:45:04.596Z,4.85
2022-10-19T22:47:30.880Z,4.57
2022-10-19T22:49:57.140Z,4.10
2022-10-19T22:52:23.373Z,4.00
2022-10-19T22:54:51.115Z,3.92
2022-10-19T22:57:17.456Z,4.47
2022-10-19T22:59:43.742Z,4.38
2022-10-19T23:02:09.976Z,4.60
2022-10-19T23:04:36.286Z,4.00
2022-10-19T23:07:02.684Z,4.18
2022-10-19T23:09:28.982Z,4.20
2022-10-19T23:11:55.264Z,4.80
2022-10-19T23:14:21.507Z,4.50
2022-10-19T23:16:47.749Z,4.70
2022-10-19T23:19:13.996Z,5.13
2022-10-19T23:21:40.237Z,4.32
2022-10-19T23:24:06.481Z,4.07
2022-10-19T23:26:32.798Z,4.50
2022-10-19T23:28:59.059Z,4.93
2022-10-19T23:31:26.503Z,4.30
2022-10-19T23:33:53.072Z,4.20
2022-10-19T23:36:20.708Z,4.53
2022-10-19T23:38:47.985Z,4.72
2022-10-19T23:41:14.454Z,4.03
2022-10-19T23:43:41.079Z,4.20
2022-10-19T23:46:07.479Z,4.57
2022-10-19T23:48:34.465Z,4.55
2022-10-19T23:51:01.826Z,5.30
2022-10-19T23:53:29.416Z,4.35
2022-10-19T23:56:02.804Z,4.57
2022-10-19T23:58:29.301Z,4.82
